Mere Point, Maine
Current Conditions -  °F | °C
As of 7:53 PM on Tuesday 21 Oct 2014 (Local Time) from KIWI Reporting Station
Overcast Overcast  
Wind Chill: 52°   Ceiling: 600
Heat Index: 52°   Visibility: 10mi
Dew Point: 51°   Wind: 0mph
Humidity: 97%   Direction: NA
Pressure: 30.05"   Gusts: NA
Location:  43.903°N, 69.9809°W
Report Text: KIWI 212353Z AUTO 00000KT 10SM BKN006 OVC010 11/11 A3005 RMK AO2 RAB30E39 CIG 004V008 SLP174 P0000 60071 T01110106 10128 20111 58000
Loading
Personal Weather Stations






























Interactive Weather Map
Tropical Storm Tracking
New forecast layout! Learn more

10-Day Weather Forecast

Advertisements
Track Severe Weather on mobile